Plankton, Ohio
Current Conditions -  °F | °C
As of 12:53 AM on Friday 31 Oct 2014 (Local Time) from KMNN Reporting Station
Overcast Overcast  
Wind Chill: 45°   Ceiling: 4300
Heat Index: 45°   Visibility: 10mi
Dew Point: 35°   Wind: 3mph
Humidity: 68%   Direction: 230°SW
Pressure: 30.03"   Gusts: NA
Location:  40.948°N, 83.1346°W
Report Text: KMNN 310453Z AUTO 23003KT 10SM OVC043 07/02 A3003 RMK AO2 SLP175 T00720017 401000022 TSNO
Loading
Personal Weather Stations






























Interactive Weather Map
Tropical Storm Tracking
New forecast layout! Learn more

10-Day Weather Forecast

Advertisements
Track Severe Weather on mobile